Time;durP1;ratioP1;P1;durP2;ratioP2;P2;SDS_P1;SDS_P2;PMS_P1;PMS_P2;Temp;Humidity;BMP_temperature;BMP_pressure;BME280_temperature;BME280_humidity;BME280_pressure;Samples;Min_cycle;Max_cycle;Signal;HPM_P1;HPM_P2
2021/12/17 00:03:06;;;;;;;0.30;0.20;;;;;;;9.46;100.00;102476.47;5013736;28;20456;-50
2021/12/17 00:05:08;;;;;;;0.30;0.20;;;;;;;9.48;100.00;102466.75;4993928;28;20977;-50
2021/12/17 00:07:36;;;;;;;0.30;0.20;;;;;;;9.38;100.00;102480.78;5008964;28;20452;-50
2021/12/17 00:10:11;;;;;;;0.30;0.23;;;;;;;9.32;100.00;102467.44;5013375;28;20447;-50
2021/12/17 00:12:38;;;;;;;0.30;0.20;;;;;;;9.32;100.00;102460.38;5013699;28;20546;-50
2021/12/17 00:15:07;;;;;;;0.30;0.20;;;;;;;9.35;100.00;102456.88;5013188;28;21011;-50
2021/12/17 00:17:38;;;;;;;1.20;1.13;;;;;;;9.35;100.00;102454.22;5013299;28;20949;-50
2021/12/17 00:52:20;;;;;;;0.30;0.20;;;;;;;9.58;100.00;102439.41;5013002;28;20929;-48
2021/12/17 00:54:47;;;;;;;0.60;0.60;;;;;;;9.52;100.00;102444.66;5013121;28;20986;-48
2021/12/17 00:57:22;;;;;;;0.30;0.20;;;;;;;9.48;100.00;102446.41;5012813;28;20511;-48
2021/12/17 00:59:52;;;;;;;0.30;0.20;;;;;;;9.49;100.00;102439.34;5013065;28;20468;-48
2021/12/17 01:02:23;;;;;;;5.70;1.47;;;;;;;9.44;100.00;102441.91;5012670;28;20510;-48
2021/12/17 01:04:54;;;;;;;0.30;0.20;;;;;;;9.40;100.00;102441.88;5013010;28;20444;-50
2021/12/17 01:07:23;;;;;;;0.77;0.77;;;;;;;9.27;100.00;102446.16;5012508;28;20483;-49
2021/12/17 01:09:51;;;;;;;1.40;1.30;;;;;;;9.10;100.00;102439.75;5041342;22;21041;-78
2021/12/17 01:12:20;;;;;;;0.40;0.30;;;;;;;9.22;100.00;102447.88;5026454;28;20788;-78
2021/12/17 01:14:47;;;;;;;0.70;0.70;;;;;;;9.30;100.00;102451.50;5022014;28;20546;-78
2021/12/17 01:17:15;;;;;;;0.30;0.20;;;;;;;9.17;100.00;102450.44;5023655;28;20488;-79
2021/12/17 01:35:30;;;;;;;0.50;0.50;;;;;;;9.13;100.00;102474.28;5012726;28;20480;-50
2021/12/17 01:43:20;;;;;;;0.30;0.20;;;;;;;9.16;100.00;102475.22;5013367;28;20910;-50
2021/12/17 01:45:47;;;;;;;0.30;0.20;;;;;;;9.03;100.00;102481.22;5016441;28;20511;-49
2021/12/17 01:48:20;;;;;;;0.30;0.20;;;;;;;9.08;100.00;102479.53;5016469;28;20453;-50
2021/12/17 01:56:58;;;;;;;0.30;0.20;;;;;;;9.00;100.00;102481.19;5001535;28;20507;-50
2021/12/17 01:59:34;;;;;;;0.30;0.20;;;;;;;9.05;100.00;102481.28;5016048;28;20941;-50
2021/12/17 02:02:06;;;;;;;0.53;0.53;;;;;;;9.01;100.00;102487.38;5016447;28;20518;-50
2021/12/17 02:04:34;;;;;;;2.93;1.03;;;;;;;9.04;100.00;102483.00;5016341;28;20499;-50
2021/12/17 02:07:05;;;;;;;0.30;0.20;;;;;;;9.12;100.00;102478.69;5016317;28;20879;-50
2021/12/17 02:20:42;;;;;;;0.30;0.20;;;;;;;9.00;100.00;102470.59;5015886;28;20448;-50
2021/12/17 02:31:32;;;;;;;0.40;0.40;;;;;;;9.07;100.00;102467.16;5015583;28;20808;-47
2021/12/17 02:34:05;;;;;;;0.30;0.20;;;;;;;9.14;100.00;102465.44;5015696;28;20521;-48
2021/12/17 02:36:34;;;;;;;0.40;0.40;;;;;;;9.05;100.00;102452.97;5015518;28;20456;-47
2021/12/17 02:39:33;;;;;;;0.50;0.50;;;;;;;9.15;100.00;102451.31;5015540;28;20453;-47
2021/12/17 02:47:23;;;;;;;0.30;0.20;;;;;;;9.04;100.00;102444.97;5004922;28;20452;-47
2021/12/17 02:49:50;;;;;;;0.30;0.20;;;;;;;9.12;100.00;102443.31;5015577;28;20448;-47
2021/12/17 02:52:17;;;;;;;0.30;0.20;;;;;;;9.13;100.00;102446.00;5015368;28;20469;-47
2021/12/17 02:54:44;;;;;;;0.30;0.20;;;;;;;9.06;100.00;102438.84;5014620;28;20492;-47
2021/12/17 02:57:12;;;;;;;0.30;0.20;;;;;;;9.11;100.00;102437.13;5015267;28;20499;-48
2021/12/17 02:59:39;;;;;;;0.30;0.20;;;;;;;9.19;100.00;102443.44;5014933;28;20464;-47
2021/12/17 03:02:08;;;;;;;0.30;0.20;;;;;;;9.14;100.00;102441.56;5015631;28;20870;-48
2021/12/17 03:04:39;;;;;;;0.30;0.20;;;;;;;9.17;100.00;102442.50;5015008;28;20441;-47
2021/12/17 03:07:06;;;;;;;1.27;1.17;;;;;;;9.24;100.00;102434.63;5015185;28;20492;-47
2021/12/17 03:10:22;;;;;;;0.30;0.30;;;;;;;9.27;100.00;102434.66;5013929;28;20449;-48
2021/12/17 03:12:31;;;;;;;0.30;0.20;;;;;;;9.23;100.00;102438.16;5011234;28;20477;-48
2021/12/17 03:15:14;;;;;;;0.30;0.20;;;;;;;9.14;100.00;102439.81;5015165;28;20524;-48
2021/12/17 03:18:16;;;;;;;0.30;0.20;;;;;;;9.18;100.00;102438.06;5021000;28;20444;-47
2021/12/17 03:26:20;;;;;;;0.30;0.20;;;;;;;9.29;100.00;102438.22;5004325;28;20449;-49
2021/12/17 03:28:52;;;;;;;3.50;2.93;;;;;;;9.22;100.00;102439.03;5026221;28;20441;-47
2021/12/17 03:31:22;;;;;;;1.23;1.23;;;;;;;9.16;100.00;102442.47;5030041;28;20450;-47
2021/12/17 03:33:50;;;;;;;6.23;1.13;;;;;;;9.03;100.00;102446.75;5018670;28;20913;-47
2021/12/17 03:36:19;;;;;;;0.30;0.20;;;;;;;9.03;100.00;102444.09;5006306;28;20499;-47
2021/12/17 03:38:48;;;;;;;0.30;0.20;;;;;;;8.97;100.00;102449.31;5014564;28;20510;-48
2021/12/17 03:41:19;;;;;;;0.30;0.20;;;;;;;9.08;100.00;102446.81;5014475;28;20452;-47
2021/12/17 03:43:48;;;;;;;0.30;0.20;;;;;;;9.06;100.00;102443.25;5014669;28;20469;-47
2021/12/17 03:46:16;;;;;;;0.30;0.20;;;;;;;9.07;100.00;102451.25;5014524;28;20453;-47
2021/12/17 03:48:43;;;;;;;0.30;0.20;;;;;;;9.11;100.00;102444.19;5014091;28;20873;-50
2021/12/17 03:51:15;;;;;;;0.30;0.20;;;;;;;9.02;100.00;102437.00;5014126;28;20519;-50
2021/12/17 03:54:00;;;;;;;0.30;0.20;;;;;;;8.99;100.00;102442.28;5001991;28;20492;-50
2021/12/17 03:56:27;;;;;;;0.30;0.20;;;;;;;8.88;100.00;102436.81;5014216;28;20443;-50
2021/12/17 03:58:56;;;;;;;0.50;0.50;;;;;;;8.92;100.00;102432.47;5014123;28;20453;-50
2021/12/17 04:01:23;;;;;;;0.30;0.20;;;;;;;8.89;100.00;102438.59;5014032;28;20802;-50
2021/12/17 04:03:50;;;;;;;0.40;0.37;;;;;;;9.09;100.00;102440.63;5013949;28;20483;-50
2021/12/17 04:06:17;;;;;;;0.30;0.20;;;;;;;9.00;100.00;102436.09;5013053;28;20975;-50
2021/12/17 04:08:43;;;;;;;0.30;0.20;;;;;;;8.94;100.00;102425.44;5013380;28;20453;-50
2021/12/17 04:11:17;;;;;;;0.30;0.20;;;;;;;8.94;100.00;102424.53;5013885;28;20457;-50
2021/12/17 04:13:51;;;;;;;0.30;0.20;;;;;;;8.88;100.00;102423.56;5013682;28;20527;-50
2021/12/17 04:16:22;;;;;;;0.40;0.20;;;;;;;8.94;100.00;102425.44;5013070;28;20981;-50
2021/12/17 04:18:49;;;;;;;0.30;0.20;;;;;;;9.07;100.00;102418.50;5013541;28;20972;-49
2021/12/17 04:21:16;;;;;;;0.30;0.20;;;;;;;9.07;100.00;102415.84;5013862;28;20448;-51
2021/12/17 04:23:44;;;;;;;0.30;0.20;;;;;;;9.11;100.00;102410.59;5013568;28;20519;-50
2021/12/17 04:26:12;;;;;;;0.30;0.20;;;;;;;9.16;100.00;102416.84;5013490;28;20452;-50
2021/12/17 04:28:45;;;;;;;0.30;0.20;;;;;;;9.06;100.00;102414.97;5013415;28;20491;-50
2021/12/17 04:31:13;;;;;;;10.30;1.83;;;;;;;9.06;100.00;102420.28;5013395;28;20476;-50
2021/12/17 04:33:42;;;;;;;0.30;0.20;;;;;;;9.04;100.00;102415.78;5013094;28;20490;-50
2021/12/17 04:36:16;;;;;;;0.30;0.20;;;;;;;8.87;100.00;102418.25;5013541;28;20452;-50
2021/12/17 04:38:42;;;;;;;0.30;0.20;;;;;;;8.90;100.00;102405.03;5013726;28;20456;-50
2021/12/17 04:43:54;;;;;;;0.30;0.20;;;;;;;8.90;100.00;102412.97;5013367;28;20479;-50
2021/12/17 04:46:49;;;;;;;0.30;0.20;;;;;;;9.00;100.00;102419.28;5008765;28;20526;-50
2021/12/17 04:57:30;;;;;;;0.30;0.20;;;;;;;9.01;100.00;102416.66;5013249;28;20495;-50
2021/12/17 05:00:05;;;;;;;4.07;2.70;;;;;;;8.90;100.00;102412.97;5013294;28;20453;-50
2021/12/17 05:02:36;;;;;;;0.30;0.20;;;;;;;8.92;100.00;102411.25;5012866;28;20988;-50
2021/12/17 05:05:07;;;;;;;0.30;0.20;;;;;;;8.95;100.00;102402.44;5013537;28;20535;-50
2021/12/17 05:07:36;;;;;;;0.30;0.20;;;;;;;8.88;100.00;102410.31;5013280;28;20499;-50
2021/12/17 05:18:34;;;;;;;0.30;0.20;;;;;;;8.77;100.00;102403.09;5012555;28;20448;-50
2021/12/17 05:21:07;;;;;;;0.50;0.50;;;;;;;8.76;100.00;102403.97;4999945;28;20476;-50
2021/12/17 05:23:39;;;;;;;0.30;0.20;;;;;;;8.76;100.00;102401.31;5012594;28;20483;-50
2021/12/17 05:26:09;;;;;;;0.30;0.20;;;;;;;8.92;100.00;102399.75;5012798;28;20479;-50
2021/12/17 05:28:36;;;;;;;0.30;0.20;;;;;;;8.84;100.00;102407.63;5012909;28;20449;-50
2021/12/17 05:31:03;;;;;;;0.30;0.20;;;;;;;8.80;100.00;102401.38;5012713;28;20460;-50
2021/12/17 05:33:30;;;;;;;0.30;0.20;;;;;;;8.61;100.00;102399.34;5012788;28;20472;-50
2021/12/17 05:35:56;;;;;;;0.30;0.20;;;;;;;8.70;100.00;102396.81;5012618;28;20996;-50
2021/12/17 05:38:24;;;;;;;0.57;0.57;;;;;;;8.69;100.00;102388.84;5012743;28;20456;-50
2021/12/17 05:40:52;;;;;;;0.30;0.20;;;;;;;8.71;100.00;102398.59;5012698;28;20827;-50
2021/12/17 05:43:19;;;;;;;0.30;0.20;;;;;;;8.61;100.00;102407.28;5012713;28;20898;-50
2021/12/17 05:46:38;;;;;;;0.30;0.30;;;;;;;8.51;100.00;102406.31;5012654;28;20477;-50
2021/12/17 05:48:40;;;;;;;0.30;0.20;;;;;;;8.42;100.00;102392.91;4996640;28;20488;-50
2021/12/17 05:51:09;;;;;;;0.30;0.20;;;;;;;8.51;100.00;102398.34;5012409;28;20511;-50
2021/12/17 05:53:36;;;;;;;0.30;0.20;;;;;;;8.38;100.00;102398.16;5012591;28;20499;-50
2021/12/17 05:56:03;;;;;;;0.30;0.20;;;;;;;8.35;100.00;102400.72;5012591;28;20550;-48
2021/12/17 05:58:29;;;;;;;0.30;0.30;;;;;;;8.51;100.00;102406.31;5012711;28;20792;-49
2021/12/17 06:00:57;;;;;;;0.30;0.20;;;;;;;8.18;100.00;102416.34;5012151;28;20456;-48
2021/12/17 06:03:24;;;;;;;0.73;0.73;;;;;;;8.08;100.00;102417.06;5012440;28;20479;-48
2021/12/17 06:05:51;;;;;;;0.30;0.20;;;;;;;8.18;100.00;102417.25;5012509;28;20507;-48
2021/12/17 06:08:17;;;;;;;0.30;0.20;;;;;;;8.23;100.00;102414.69;5012585;28;20988;-49
2021/12/17 06:10:44;;;;;;;0.30;0.20;;;;;;;8.42;100.00;102422.06;5012555;28;20514;-48
2021/12/17 06:13:11;;;;;;;0.30;0.20;;;;;;;8.19;100.00;102429.63;5012364;28;20906;-48
2021/12/17 06:15:37;;;;;;;0.30;0.20;;;;;;;8.17;100.00;102422.53;5011875;28;20531;-48
2021/12/17 06:18:04;;;;;;;0.30;0.20;;;;;;;8.30;100.00;102428.03;5012266;28;20452;-48
2021/12/17 06:20:31;;;;;;;0.30;0.20;;;;;;;8.29;100.00;102428.00;5012412;28;20871;-48
2021/12/17 06:22:58;;;;;;;0.40;0.37;;;;;;;8.09;100.00;102424.19;5012392;28;20500;-49
2021/12/17 06:25:24;;;;;;;0.30;0.20;;;;;;;8.26;100.00;102428.88;5012167;28;20958;-48
2021/12/17 06:27:54;;;;;;;2.10;2.00;;;;;;;8.25;100.00;102429.72;5012196;28;20456;-48
2021/12/17 06:30:21;;;;;;;0.30;0.20;;;;;;;8.21;100.00;102429.63;5012822;28;20467;-48
2021/12/17 06:32:48;;;;;;;0.30;0.20;;;;;;;8.32;100.00;102430.69;5016018;28;21008;-48
2021/12/17 06:35:15;;;;;;;3.23;1.03;;;;;;;8.37;100.00;102439.66;5015583;28;20542;-48
2021/12/17 06:37:43;;;;;;;0.30;0.20;;;;;;;8.43;100.00;102426.50;5015974;28;20457;-48
2021/12/17 06:40:11;;;;;;;0.30;0.20;;;;;;;8.40;100.00;102437.06;5015472;28;20452;-48
2021/12/17 06:42:39;;;;;;;0.30;0.20;;;;;;;8.40;100.00;102437.06;5015554;28;20544;-48
2021/12/17 06:45:14;;;;;;;0.30;0.20;;;;;;;8.50;100.00;102430.13;5015201;28;20872;-49
2021/12/17 06:47:41;;;;;;;0.30;0.20;;;;;;;8.47;100.00;102428.31;5015605;28;20856;-48
2021/12/17 07:05:59;;;;;;;0.30;0.20;;;;;;;8.54;100.00;102432.84;5015257;28;20468;-48
2021/12/17 07:11:16;;;;;;;0.30;0.20;;;;;;;8.48;100.00;102448.63;5014906;28;20456;-48
2021/12/17 07:32:37;;;;;;;0.30;0.20;;;;;;;8.24;100.00;102465.03;5001456;28;20969;-48
2021/12/17 07:40:10;;;;;;;0.30;0.20;;;;;;;8.47;100.00;102460.09;5014497;28;20458;-48
2021/12/17 07:42:37;;;;;;;0.30;0.20;;;;;;;8.46;100.00;102462.75;5014033;28;20888;-48
2021/12/17 07:45:05;;;;;;;0.60;0.40;;;;;;;8.48;100.00;102456.59;5013942;28;20455;-49
2021/12/17 07:47:31;;;;;;;0.30;0.20;;;;;;;8.47;100.00;102469.81;5014472;28;20503;-48
2021/12/17 07:49:58;;;;;;;0.40;0.40;;;;;;;8.44;100.00;102472.44;5014186;28;20498;-48
2021/12/17 07:52:24;;;;;;;0.30;0.20;;;;;;;8.48;100.00;102467.19;5014150;28;21036;-48
2021/12/17 07:54:51;;;;;;;0.70;0.70;;;;;;;8.47;100.00;102453.91;5014075;28;21099;-49
2021/12/17 07:57:18;;;;;;;0.30;0.20;;;;;;;8.48;100.00;102458.34;5012969;28;20459;-49
2021/12/17 07:59:44;;;;;;;0.30;0.20;;;;;;;8.49;100.00;102452.19;5013742;28;20507;-49
2021/12/17 08:02:11;;;;;;;0.30;0.20;;;;;;;8.48;100.00;102453.06;5014106;28;20523;-49
2021/12/17 08:04:38;;;;;;;0.30;0.20;;;;;;;8.51;100.00;102458.41;5013988;28;20518;-49
2021/12/17 08:07:04;;;;;;;0.30;0.20;;;;;;;8.44;100.00;102462.72;5013820;28;21024;-49
2021/12/17 08:09:31;;;;;;;0.30;0.20;;;;;;;8.38;100.00;102460.00;5013752;28;20449;-49
2021/12/17 08:11:58;;;;;;;0.30;0.20;;;;;;;8.44;100.00;102469.78;5013993;28;20876;-49
2021/12/17 08:14:27;;;;;;;0.30;0.20;;;;;;;8.42;100.00;102469.75;5015147;28;20452;-49
2021/12/17 08:17:13;;;;;;;0.30;0.20;;;;;;;8.23;100.00;102470.31;5013845;28;20449;-49
2021/12/17 08:25:13;;;;;;;0.30;0.20;;;;;;;8.67;100.00;102475.44;5013560;28;20460;-49
2021/12/17 08:28:04;;;;;;;0.57;0.57;;;;;;;8.65;100.00;102480.72;5001114;28;20452;-49
2021/12/17 08:30:38;;;;;;;0.63;0.63;;;;;;;8.84;100.00;102485.41;5013237;28;20456;-49
2021/12/17 08:33:06;;;;;;;0.30;0.20;;;;;;;8.77;100.00;102488.84;5013949;28;20873;-49
2021/12/17 08:35:34;;;;;;;0.30;0.20;;;;;;;8.72;100.00;102490.53;5013221;28;20517;-49
2021/12/17 08:38:05;;;;;;;0.30;0.20;;;;;;;8.83;100.00;102493.34;5013436;28;20480;-49
2021/12/17 08:40:32;;;;;;;0.30;0.20;;;;;;;8.81;100.00;102479.19;5013424;28;20503;-49
2021/12/17 08:42:59;;;;;;;0.30;0.20;;;;;;;8.85;100.00;102483.63;5013423;28;20469;-49
2021/12/17 08:45:26;;;;;;;0.30;0.20;;;;;;;8.84;100.00;102482.75;5013060;28;20472;-49
2021/12/17 08:47:53;;;;;;;0.30;0.20;;;;;;;8.84;100.00;102492.47;5013432;28;21245;-49
2021/12/17 08:50:19;;;;;;;0.30;0.20;;;;;;;8.76;100.00;102500.31;5000475;28;20467;-49
2021/12/17 08:52:47;;;;;;;0.30;0.20;;;;;;;8.99;100.00;102508.59;5012581;28;20477;-48
2021/12/17 08:55:14;;;;;;;0.30;0.20;;;;;;;8.71;100.00;102509.06;5013312;28;20499;-49
2021/12/17 08:57:41;;;;;;;0.30;0.30;;;;;;;8.69;100.00;102508.16;5014408;28;20520;-49
2021/12/17 09:00:13;;;;;;;0.30;0.20;;;;;;;8.72;100.00;102516.16;5013113;28;20452;-49
2021/12/17 09:02:41;;;;;;;0.30;0.20;;;;;;;8.57;100.00;102524.75;5013357;28;20451;-48
2021/12/17 09:05:09;;;;;;;0.30;0.20;;;;;;;8.56;100.00;102529.19;5013984;28;20453;-48
2021/12/17 09:07:36;;;;;;;0.30;0.20;;;;;;;8.72;100.00;102535.59;5013000;28;20449;-48
2021/12/17 09:10:06;;;;;;;0.30;0.20;;;;;;;8.69;100.00;102532.91;5012974;28;20478;-49
2021/12/17 09:12:36;;;;;;;0.30;0.20;;;;;;;8.71;100.00;102536.47;5012828;28;20475;-49
2021/12/17 09:15:03;;;;;;;0.30;0.20;;;;;;;8.85;100.00;102547.28;5013129;28;20579;-49
2021/12/17 09:17:29;;;;;;;0.30;0.20;;;;;;;8.99;100.00;102550.13;5012722;28;20448;-49
2021/12/17 09:19:56;;;;;;;0.30;0.20;;;;;;;8.91;100.00;102550.06;5013075;28;20483;-49
2021/12/17 09:22:23;;;;;;;0.50;0.47;;;;;;;8.97;100.00;102555.44;5012640;28;20992;-49
2021/12/17 09:24:49;;;;;;;0.30;0.30;;;;;;;8.93;100.00;102558.03;5012689;28;20875;-49
2021/12/17 09:27:16;;;;;;;0.30;0.20;;;;;;;9.00;100.00;102557.22;5012728;28;20424;-48
2021/12/17 09:29:43;;;;;;;0.30;0.20;;;;;;;8.77;100.00;102556.88;5013100;28;20448;-49
2021/12/17 09:32:09;;;;;;;0.30;0.20;;;;;;;8.85;100.00;102549.94;5012869;28;20527;-48
2021/12/17 09:34:36;;;;;;;0.30;0.20;;;;;;;9.06;100.00;102544.97;5012872;28;20980;-49
2021/12/17 09:37:03;;;;;;;1.13;1.13;;;;;;;8.97;100.00;102550.13;5012681;28;20496;-49
2021/12/17 09:39:30;;;;;;;0.30;0.20;;;;;;;9.13;100.00;102543.25;5012862;28;20452;-48
2021/12/17 09:41:57;;;;;;;0.30;0.20;;;;;;;9.23;100.00;102538.97;5012845;28;20875;-48
2021/12/17 09:44:23;;;;;;;0.30;0.20;;;;;;;9.12;99.68;102550.34;5012768;28;20484;-49
2021/12/17 09:46:50;;;;;;;0.30;0.20;;;;;;;9.42;98.29;102552.50;5012660;28;20452;-49
2021/12/17 09:49:18;;;;;;;0.30;0.20;;;;;;;9.23;99.75;102544.28;5012993;28;20456;-50
2021/12/17 09:51:46;;;;;;;0.30;0.20;;;;;;;9.37;99.31;102554.22;5012691;28;20510;-49
2021/12/17 09:54:14;;;;;;;0.30;0.20;;;;;;;9.13;99.65;102549.47;5012535;28;20448;-48
2021/12/17 09:56:40;;;;;;;0.30;0.20;;;;;;;9.13;99.92;102543.25;5012458;28;20554;-49
2021/12/17 09:59:08;;;;;;;0.30;0.20;;;;;;;9.15;98.58;102555.69;5011422;28;21020;-48
2021/12/17 10:01:38;;;;;;;0.30;0.20;;;;;;;9.35;98.45;102544.47;5012490;28;20448;-49
2021/12/17 10:04:15;;;;;;;0.30;0.20;;;;;;;9.27;97.93;102540.81;5013156;28;20460;-49
2021/12/17 10:06:42;;;;;;;0.30;0.20;;;;;;;9.18;97.11;102549.50;5016075;28;20483;-49
2021/12/17 10:09:09;;;;;;;0.53;0.53;;;;;;;9.29;96.34;102552.31;5016601;28;20452;-49
2021/12/17 10:11:36;;;;;;;0.30;0.20;;;;;;;9.34;96.79;102546.22;5016784;28;21000;-49
2021/12/17 10:14:24;;;;;;;0.30;0.20;;;;;;;9.37;95.82;102535.63;5016634;28;20534;-49
2021/12/17 10:16:51;;;;;;;0.30;0.20;;;;;;;9.35;96.62;102540.03;5016315;28;20492;-49
2021/12/17 10:19:41;;;;;;;0.30;0.20;;;;;;;9.30;96.64;102540.84;5016367;28;20982;-48
2021/12/17 10:22:12;;;;;;;0.30;0.20;;;;;;;9.00;96.51;102541.31;5016141;28;20468;-49
2021/12/17 10:24:44;;;;;;;0.30;0.20;;;;;;;9.20;95.66;102542.50;5016285;28;20468;-49
2021/12/17 10:27:25;;;;;;;0.30;0.20;;;;;;;9.26;96.00;102537.25;5016155;28;20502;-49
2021/12/17 10:29:52;;;;;;;0.40;0.40;;;;;;;9.28;96.69;102531.97;5016057;28;20441;-49
2021/12/17 10:32:21;;;;;;;0.30;0.20;;;;;;;9.23;96.47;102520.41;5015755;28;20870;-49
2021/12/17 10:35:18;;;;;;;0.30;0.20;;;;;;;9.24;96.22;102527.50;5016326;28;20503;-50
2021/12/17 10:37:55;;;;;;;0.30;0.20;;;;;;;9.35;96.15;102537.38;5013723;28;20460;-49
2021/12/17 10:40:35;;;;;;;0.30;0.20;;;;;;;9.06;95.82;102539.66;5016220;28;20444;-49
2021/12/17 10:43:26;;;;;;;0.30;0.20;;;;;;;9.03;96.24;102536.94;5015823;28;20530;-48
2021/12/17 10:46:56;;;;;;;0.30;0.20;;;;;;;9.41;96.48;102533.91;5015744;28;20449;-49
2021/12/17 10:48:53;;;;;;;0.30;0.20;;;;;;;9.48;95.85;102528.69;5012761;28;20490;-49
2021/12/17 10:54:06;;;;;;;0.30;0.20;;;;;;;9.40;94.65;102527.69;5015505;28;20992;-49
2021/12/17 10:56:47;;;;;;;0.30;0.20;;;;;;;9.73;94.10;102521.91;5015874;28;20538;-49
2021/12/17 10:59:15;;;;;;;0.40;0.30;;;;;;;9.64;95.51;102513.84;5016183;28;20930;-49
2021/12/17 11:01:46;;;;;;;0.30;0.20;;;;;;;9.73;94.81;102521.00;5015613;28;20449;-49
2021/12/17 11:04:28;;;;;;;0.30;0.20;;;;;;;9.59;94.31;102507.56;5013912;28;20448;-49
2021/12/17 11:06:56;;;;;;;1.03;0.87;;;;;;;9.59;94.75;102511.97;5006032;28;20444;-49
2021/12/17 11:09:36;;;;;;;0.30;0.20;;;;;;;9.57;94.54;102500.47;5015414;28;20456;-49
2021/12/17 11:12:24;;;;;;;0.30;0.20;;;;;;;9.47;95.08;102505.69;5014855;28;20583;-49
2021/12/17 11:14:51;;;;;;;0.30;0.20;;;;;;;9.49;96.26;102503.94;5014972;28;20506;-49
2021/12/17 11:17:23;;;;;;;0.30;0.20;;;;;;;9.40;95.42;102505.59;5012846;28;20544;-49
2021/12/17 11:20:10;;;;;;;0.30;0.20;;;;;;;9.42;95.19;102503.81;5015334;28;20451;-49
2021/12/17 11:22:39;;;;;;;0.30;0.20;;;;;;;9.32;95.54;102497.53;5014775;28;20469;-49
2021/12/17 11:25:07;;;;;;;0.30;0.20;;;;;;;9.18;95.21;102491.13;5015036;28;20583;-49
2021/12/17 11:27:34;;;;;;;0.30;0.20;;;;;;;9.37;95.27;102489.63;5002014;28;20872;-49
2021/12/17 11:30:04;;;;;;;0.30;0.20;;;;;;;9.47;94.60;102491.53;5014670;28;20503;-49
2021/12/17 11:32:31;;;;;;;0.30;0.20;;;;;;;9.63;94.89;102495.22;5014713;28;20502;-50
2021/12/17 11:34:59;;;;;;;0.30;0.20;;;;;;;9.50;95.45;102499.50;5014807;28;20456;-49
2021/12/17 11:37:26;;;;;;;0.30;0.20;;;;;;;9.45;95.54;102503.84;5014667;28;20492;-49
2021/12/17 11:39:59;;;;;;;0.30;0.20;;;;;;;9.39;96.86;102502.03;5014504;28;20449;-49
2021/12/17 11:42:55;;;;;;;0.30;0.20;;;;;;;9.41;96.54;102504.72;5014464;28;20469;-49
2021/12/17 11:45:28;;;;;;;0.30;0.20;;;;;;;9.45;96.53;102511.81;4999102;28;20455;-49
2021/12/17 11:48:11;;;;;;;0.30;0.20;;;;;;;9.56;96.20;102502.22;5014316;28;20449;-48
2021/12/17 11:50:41;;;;;;;0.30;0.20;;;;;;;9.11;96.63;102494.59;5014497;28;20630;-49
2021/12/17 11:53:16;;;;;;;0.30;0.20;;;;;;;9.05;97.12;102494.53;5013896;28;20480;-49
2021/12/17 11:55:46;;;;;;;1.03;0.87;;;;;;;8.83;97.78;102488.03;5014269;28;20488;-49
2021/12/17 11:58:15;;;;;;;0.30;0.20;;;;;;;8.93;98.61;102483.75;5014413;28;20484;-49
2021/12/17 12:00:45;;;;;;;0.30;0.20;;;;;;;9.14;97.90;102492.88;5014233;28;20483;-50
2021/12/17 12:03:20;;;;;;;0.30;0.20;;;;;;;9.13;98.01;102493.75;5014087;28;20508;-49
2021/12/17 12:05:51;;;;;;;0.30;0.20;;;;;;;9.20;96.99;102490.31;5014279;28;20867;-50
2021/12/17 12:08:38;;;;;;;0.30;0.20;;;;;;;9.49;97.64;102489.78;5001004;28;20499;-49
2021/12/17 12:11:23;;;;;;;0.60;0.60;;;;;;;9.54;97.25;102492.47;5013986;28;21162;-49
2021/12/17 12:13:52;;;;;;;0.30;0.20;;;;;;;9.57;96.93;102487.19;5013135;28;20468;-49
2021/12/17 12:16:24;;;;;;;0.30;0.20;;;;;;;9.60;97.45;102493.44;5013243;28;20548;-49
2021/12/17 12:18:54;;;;;;;0.30;0.20;;;;;;;9.71;95.80;102489.09;5013943;28;20452;-50
2021/12/17 12:21:31;;;;;;;0.30;0.20;;;;;;;9.59;96.63;102496.06;5013721;28;20491;-50
2021/12/17 12:24:14;;;;;;;1.00;0.70;;;;;;;9.48;94.99;102490.66;5014542;28;20534;-49
2021/12/17 12:26:50;;;;;;;0.30;0.20;;;;;;;9.41;95.36;102486.13;5015453;28;20445;-50
2021/12/17 12:29:22;;;;;;;0.30;0.20;;;;;;;9.49;95.42;102479.16;5013644;28;20445;-49
2021/12/17 12:31:51;;;;;;;0.30;0.30;;;;;;;9.49;95.48;102484.47;5013734;28;20507;-49
2021/12/17 12:34:33;;;;;;;0.30;0.20;;;;;;;9.14;95.83;102484.91;5013543;28;20484;-50
2021/12/17 12:37:08;;;;;;;0.30;0.20;;;;;;;9.13;96.90;102482.25;5014089;28;20503;-49
2021/12/17 12:39:41;;;;;;;0.30;0.20;;;;;;;9.05;97.55;102491.88;5015060;28;20460;-49
2021/12/17 12:42:17;;;;;;;0.30;0.20;;;;;;;9.17;96.95;102498.22;5014514;28;20880;-49
2021/12/17 12:44:44;;;;;;;0.30;0.20;;;;;;;9.29;96.74;102486.88;5013658;28;20471;-49
2021/12/17 12:47:10;;;;;;;0.30;0.20;;;;;;;9.44;96.90;102484.38;5015550;28;20531;-50
2021/12/17 12:49:43;;;;;;;0.30;0.20;;;;;;;9.52;96.74;102478.28;5016398;28;20867;-50
2021/12/17 12:52:25;;;;;;;0.30;0.20;;;;;;;9.76;96.48;102475.91;5013298;28;20481;-49
2021/12/17 12:55:00;;;;;;;0.30;0.20;;;;;;;9.69;95.61;102471.38;5013373;28;20459;-50
2021/12/17 12:57:30;;;;;;;0.30;0.20;;;;;;;9.62;94.93;102472.22;5013223;28;20491;-49
2021/12/17 13:00:00;;;;;;;0.50;0.50;;;;;;;9.69;94.98;102476.69;5013040;28;20482;-50
2021/12/17 13:02:27;;;;;;;2.00;0.77;;;;;;;9.57;95.97;102477.44;5013001;28;20844;-49
2021/12/17 13:04:57;;;;;;;0.30;0.20;;;;;;;9.64;95.82;102466.03;5013415;28;20460;-49
2021/12/17 13:07:35;;;;;;;0.30;0.20;;;;;;;9.90;95.85;102462.75;5013463;28;20855;-49
2021/12/17 13:10:07;;;;;;;0.30;0.20;;;;;;;9.56;95.24;102465.06;5013171;28;20866;-49
2021/12/17 13:12:35;;;;;;;0.30;0.20;;;;;;;9.26;97.04;102470.91;5013248;28;21047;-49
2021/12/17 13:15:32;;;;;;;0.30;0.20;;;;;;;9.44;96.65;102467.56;5012965;28;20487;-49
2021/12/17 13:21:20;;;;;;;0.30;0.20;;;;;;;9.19;95.89;102475.28;5012868;28;20449;-50
2021/12/17 13:24:16;;;;;;;0.30;0.30;;;;;;;9.05;97.16;102482.16;5012724;28;20484;-49
2021/12/17 13:26:49;;;;;;;0.30;0.20;;;;;;;9.10;98.16;102477.78;5014005;28;20857;-49
2021/12/17 13:32:19;;;;;;;0.30;0.20;;;;;;;9.32;95.59;102471.00;5010895;28;20504;-55
2021/12/17 13:34:55;;;;;;;0.30;0.20;;;;;;;9.27;96.60;102464.72;5012464;28;20460;-56
2021/12/17 13:37:30;;;;;;;0.30;0.20;;;;;;;9.33;96.40;102466.59;5012271;28;20807;-56
2021/12/17 13:40:09;;;;;;;0.30;0.20;;;;;;;9.17;97.06;102466.38;5014921;28;20444;-56
2021/12/17 13:42:44;;;;;;;0.30;0.20;;;;;;;9.13;96.00;102458.38;5017419;28;20448;-55
2021/12/17 13:45:13;;;;;;;0.30;0.20;;;;;;;9.12;96.07;102449.53;5017301;28;20452;-56
2021/12/17 13:47:42;;;;;;;0.30;0.20;;;;;;;9.08;96.29;102446.81;5016821;28;20524;-56
2021/12/17 13:50:50;;;;;;;0.30;0.20;;;;;;;9.05;95.94;102441.47;5016458;28;20468;-56
2021/12/17 13:53:18;;;;;;;0.30;0.20;;;;;;;9.19;96.41;102446.09;5015167;28;20456;-56
2021/12/17 13:56:04;;;;;;;0.30;0.20;;;;;;;9.32;96.49;102446.19;5002997;28;20480;-53
2021/12/17 13:58:34;;;;;;;0.30;0.20;;;;;;;9.17;97.05;102441.59;5016378;28;20456;-54
2021/12/17 14:01:01;;;;;;;0.30;0.20;;;;;;;9.29;96.76;102449.72;5014322;28;21039;-54
2021/12/17 14:03:34;;;;;;;0.30;0.20;;;;;;;9.16;97.18;102463.69;5005001;28;20827;-53
2021/12/17 14:06:11;;;;;;;0.30;0.20;;;;;;;9.39;95.40;102466.63;5016048;28;20459;-54
2021/12/17 14:08:40;;;;;;;0.30;0.20;;;;;;;9.18;95.31;102465.53;5016093;28;20827;-53
2021/12/17 14:11:25;;;;;;;0.30;0.20;;;;;;;9.01;96.17;102482.09;5015858;28;20476;-55
2021/12/17 14:14:27;;;;;;;0.30;0.20;;;;;;;9.02;97.02;102476.78;5016551;28;20969;-55
2021/12/17 14:17:00;;;;;;;0.30;0.20;;;;;;;9.16;97.19;102482.28;5016571;28;20490;-54
2021/12/17 14:19:40;;;;;;;0.30;0.20;;;;;;;9.21;96.11;102480.59;4996430;28;20512;-54
2021/12/17 14:22:27;;;;;;;0.30;0.20;;;;;;;9.27;96.81;102487.72;5011306;28;20479;-54
2021/12/17 14:24:56;;;;;;;0.30;0.20;;;;;;;9.14;96.83;102497.28;5016084;28;20484;-54
2021/12/17 14:27:42;;;;;;;0.30;0.20;;;;;;;9.02;96.35;102490.06;5015698;28;20444;-54
2021/12/17 14:30:10;;;;;;;0.30;0.20;;;;;;;9.20;96.41;102490.31;5014807;28;20484;-54
2021/12/17 14:32:46;;;;;;;0.30;0.20;;;;;;;8.87;97.68;102492.50;5004316;28;20456;-54
2021/12/17 14:35:34;;;;;;;0.30;0.20;;;;;;;8.81;97.82;102489.78;5016273;28;20448;-55
2021/12/17 14:38:03;;;;;;;0.30;0.20;;;;;;;8.86;97.06;102482.78;5004122;28;20993;-56